• Join FlightAware (Why Join?)
  • Login
  • US Flag 
04:18AM EST


 

Airport Tracker/Info


-or-


 

Live Flight TrackerFlight Track Log ✈ N1926A ✈ 07-Jul-2013 ✈ KMGM - KATL

Flight Track Log - Related Links

Times and Time Zones

All times are in EDT time to prevent confusion due to time zone crossing. See the N1926A flight status page for this flight to view local times or setup timezone preferences in your user account.

Time Position Orientation Groundspeed Altitude Reporting Facility
EDT Latitude Longitude Course Direction KTS MPH feet Rate Location/Type
11:18AM 32.3311 -86.3125 53° Northeast 164 189 5,300  Level Atlanta Center
11:19AM 32.3567 -86.2714 54° Northeast 171 197 7,600 2,160 Climbing Atlanta Center
11:20AM 32.3847 -86.2281 53° Northeast 166 191 9,700 1,620 Climbing Atlanta Center
11:21AM 32.5126 -86.0363 56° Northeast  Level FlightAware Approximate
11:21AM 32.4211 -86.1722 52° Northeast 171 197 10,900  Level Atlanta Center
11:22AM 32.5476 -85.9774 53° Northeast  Level FlightAware Approximate
11:22AM 32.4619 -86.1042 55° Northeast 211 243 10,900  Level Atlanta Center
11:23AM 32.5838 -85.9196 53° Northeast  Level FlightAware Approximate
11:23AM 32.5089 -86.0389 50° Northeast 239 275 10,900  Level Atlanta Center
11:24AM 32.6200 -85.8617 53° Northeast  Level FlightAware Approximate
11:24AM 32.5558 -85.9708 51° Northeast 255 293 10,900  Level Atlanta Center
11:25AM 32.6008 -85.9003 53° Northeast 260 299 10,900  Level Atlanta Center
11:26AM 32.6458 -85.8297 53° Northeast 266 306 10,900  Level Atlanta Center
11:27AM 32.6906 -85.7617 52° Northeast 266 306 10,900  Level Atlanta Center
11:28AM 32.7353 -85.6908 53° Northeast 266 306 10,900  Level Atlanta Center
11:29AM 32.7800 -85.6250 51° Northeast 266 306 10,900  Level Atlanta Center
11:30AM 32.8247 -85.5517 54° Northeast 266 306 10,900  Level Atlanta Center
11:31AM 32.8694 -85.4806 53° Northeast 266 306 10,900  Level Atlanta Center
11:32AM 32.9161 -85.4147 50° Northeast 266 306 10,900  Level Atlanta Center
11:33AM 32.9608 -85.3436 53° Northeast 266 306 10,900  Level Atlanta Center
11:34AM 33.0075 -85.2725 52° Northeast 271 312 10,900  Level Atlanta Center
11:35AM 33.0583 -85.1986 51° Northeast 271 312 10,900  Level Atlanta Center
11:36AM 33.1069 -85.1300 50° Northeast 265 305 10,900  Level Atlanta Center
11:37AM 33.1575 -85.0636 48° Northeast 265 305 11,000  Climbing Atlanta Center
11:38AM 33.2103 -84.9972 46° Northeast 265 305 11,000  Level Atlanta Center
11:39AM 33.2525 -84.9406 48° Northeast 265 305 11,000  Level Atlanta Center
11:40AM 33.3050 -84.8739 47° Northeast 265 305 11,000  Level Atlanta Center
11:41AM 33.3536 -84.8097 48° Northeast 265 305 11,000  Level Atlanta Center
11:42AM 33.4081 -84.7456 45° Northeast 265 305 11,000  Level Atlanta Center
11:43AM 33.4731 -84.7011 30° Northeast 260 299 11,000  Level Atlanta Center
11:46AM 33.6333 -84.5833 31° Northeast 273 314 11,100  Climbing Atlanta TRACON
11:47AM 33.7000 -84.5333 32° Northeast 280 322 11,100 -660 Level Atlanta TRACON
11:48AM 33.7333 -84.4500 64° Northeast 292 336 9,800 -1,440 Descending Atlanta TRACON
11:49AM 33.7333 -84.3500 90° East 279 321 8,200 -2,280 Descending Atlanta TRACON
11:50AM 33.7500 -84.2667 76° East 269 310 5,500 -2,100 Descending Atlanta TRACON
11:51AM 33.7167 -84.2000 121° Southeast 233 268 4,000 -780 Descending Atlanta TRACON
11:52AM 33.6667 -84.1833 164° South 208 239 3,900 -180 Descending Atlanta TRACON
11:53AM 33.6500 -84.2500 253° West 209 241 3,700 -600 Descending Atlanta TRACON
11:54AM 33.6500 -84.3167 270° West 176 203 2,700 -960 Descending Atlanta TRACON
11:55AM 33.6500 -84.3667 270° West 155 178 1,800 -900 Descending Atlanta TRACON
11:57AM 33.6333 -84.4167 245° Southwest  Level FlightAware Approximate
12:04PM 33.6367 -84.4279 245° Southwest  Level Estimated
12:05PM 33.6367 -84.4279 245° Southwest  Level Estimated